sensor_id;sensor_type;location;lat;lon;timestamp;P1;durP1;ratioP1;P2;durP2;ratioP2
44000;SDS011;29660;42.892;24.710;2024-02-15T00:00:58;27.17;;;21.33;;
44000;SDS011;29660;42.892;24.710;2024-02-15T00:06:21;28.02;;;22.02;;
44000;SDS011;29660;42.892;24.710;2024-02-15T00:11:44;24.40;;;18.88;;
44000;SDS011;29660;42.892;24.710;2024-02-15T00:17:06;20.98;;;14.38;;
44000;SDS011;29660;42.892;24.710;2024-02-15T00:22:28;19.23;;;14.15;;
44000;SDS011;29660;42.892;24.710;2024-02-15T00:27:51;17.85;;;12.65;;
44000;SDS011;29660;42.892;24.710;2024-02-15T00:33:13;18.23;;;13.40;;
44000;SDS011;29660;42.892;24.710;2024-02-15T00:38:36;32.90;;;23.15;;
44000;SDS011;29660;42.892;24.710;2024-02-15T00:43:59;34.47;;;24.05;;
44000;SDS011;29660;42.892;24.710;2024-02-15T00:49:21;58.15;;;39.42;;
44000;SDS011;29660;42.892;24.710;2024-02-15T00:54:45;32.15;;;21.42;;
44000;SDS011;29660;42.892;24.710;2024-02-15T01:00:08;30.63;;;22.63;;
44000;SDS011;29660;42.892;24.710;2024-02-15T01:05:31;17.88;;;12.98;;
44000;SDS011;29660;42.892;24.710;2024-02-15T01:10:53;15.05;;;9.88;;
44000;SDS011;29660;42.892;24.710;2024-02-15T01:16:16;15.15;;;11.73;;
44000;SDS011;29660;42.892;24.710;2024-02-15T01:21:38;21.35;;;12.90;;
44000;SDS011;29660;42.892;24.710;2024-02-15T01:27:00;35.08;;;21.90;;
44000;SDS011;29660;42.892;24.710;2024-02-15T01:32:23;34.10;;;21.92;;
44000;SDS011;29660;42.892;24.710;2024-02-15T01:37:46;31.25;;;22.02;;
44000;SDS011;29660;42.892;24.710;2024-02-15T01:43:08;30.33;;;22.80;;
44000;SDS011;29660;42.892;24.710;2024-02-15T01:48:30;26.10;;;19.73;;
44000;SDS011;29660;42.892;24.710;2024-02-15T01:53:52;21.38;;;16.13;;
44000;SDS011;29660;42.892;24.710;2024-02-15T01:59:15;16.27;;;13.10;;
44000;SDS011;29660;42.892;24.710;2024-02-15T02:04:39;17.27;;;12.30;;
44000;SDS011;29660;42.892;24.710;2024-02-15T02:10:03;13.48;;;11.48;;
44000;SDS011;29660;42.892;24.710;2024-02-15T02:15:26;15.13;;;11.30;;
44000;SDS011;29660;42.892;24.710;2024-02-15T02:20:48;19.30;;;12.18;;
44000;SDS011;29660;42.892;24.710;2024-02-15T02:26:10;23.35;;;15.57;;
44000;SDS011;29660;42.892;24.710;2024-02-15T02:31:33;68.90;;;35.53;;
44000;SDS011;29660;42.892;24.710;2024-02-15T02:36:59;25.23;;;16.40;;
44000;SDS011;29660;42.892;24.710;2024-02-15T02:42:24;19.45;;;12.43;;
44000;SDS011;29660;42.892;24.710;2024-02-15T02:47:46;12.88;;;10.20;;
44000;SDS011;29660;42.892;24.710;2024-02-15T02:53:14;10.07;;;7.47;;
44000;SDS011;29660;42.892;24.710;2024-02-15T02:58:37;17.90;;;10.23;;
44000;SDS011;29660;42.892;24.710;2024-02-15T03:03:59;15.20;;;10.52;;
44000;SDS011;29660;42.892;24.710;2024-02-15T03:09:21;13.05;;;7.55;;
44000;SDS011;29660;42.892;24.710;2024-02-15T03:14:44;10.15;;;7.90;;
44000;SDS011;29660;42.892;24.710;2024-02-15T03:20:08;55.63;;;28.10;;
44000;SDS011;29660;42.892;24.710;2024-02-15T03:25:42;16.25;;;11.60;;
44000;SDS011;29660;42.892;24.710;2024-02-15T03:31:05;16.48;;;10.43;;
44000;SDS011;29660;42.892;24.710;2024-02-15T03:36:27;16.52;;;10.13;;
44000;SDS011;29660;42.892;24.710;2024-02-15T03:41:51;14.85;;;10.27;;
44000;SDS011;29660;42.892;24.710;2024-02-15T03:47:13;9.88;;;6.03;;
44000;SDS011;29660;42.892;24.710;2024-02-15T03:52:36;10.05;;;6.80;;
44000;SDS011;29660;42.892;24.710;2024-02-15T03:57:59;12.38;;;8.40;;
44000;SDS011;29660;42.892;24.710;2024-02-15T04:03:21;28.35;;;17.52;;
44000;SDS011;29660;42.892;24.710;2024-02-15T04:08:44;12.77;;;8.30;;
44000;SDS011;29660;42.892;24.710;2024-02-15T04:14:06;40.03;;;28.70;;
44000;SDS011;29660;42.892;24.710;2024-02-15T04:19:28;10.20;;;7.50;;
44000;SDS011;29660;42.892;24.710;2024-02-15T04:24:50;15.82;;;10.32;;
44000;SDS011;29660;42.892;24.710;2024-02-15T04:30:12;12.02;;;9.00;;
44000;SDS011;29660;42.892;24.710;2024-02-15T04:35:34;16.88;;;10.18;;
44000;SDS011;29660;42.892;24.710;2024-02-15T04:40:57;20.15;;;11.23;;
44000;SDS011;29660;42.892;24.710;2024-02-15T04:46:22;11.63;;;8.40;;
44000;SDS011;29660;42.892;24.710;2024-02-15T04:51:44;10.23;;;6.93;;
44000;SDS011;29660;42.892;24.710;2024-02-15T04:57:07;11.65;;;8.35;;
44000;SDS011;29660;42.892;24.710;2024-02-15T05:02:33;9.80;;;6.95;;
44000;SDS011;29660;42.892;24.710;2024-02-15T05:07:58;13.82;;;8.77;;
44000;SDS011;29660;42.892;24.710;2024-02-15T05:13:26;15.65;;;12.05;;
44000;SDS011;29660;42.892;24.710;2024-02-15T05:18:48;11.88;;;7.63;;
44000;SDS011;29660;42.892;24.710;2024-02-15T05:24:12;16.27;;;11.88;;
44000;SDS011;29660;42.892;24.710;2024-02-15T05:29:38;10.35;;;7.15;;
44000;SDS011;29660;42.892;24.710;2024-02-15T05:35:01;11.45;;;8.10;;
44000;SDS011;29660;42.892;24.710;2024-02-15T05:40:24;11.23;;;7.35;;
44000;SDS011;29660;42.892;24.710;2024-02-15T05:45:46;14.23;;;8.68;;
44000;SDS011;29660;42.892;24.710;2024-02-15T05:51:08;16.27;;;14.55;;
44000;SDS011;29660;42.892;24.710;2024-02-15T05:56:30;16.50;;;12.13;;
44000;SDS011;29660;42.892;24.710;2024-02-15T06:01:52;20.27;;;13.80;;
44000;SDS011;29660;42.892;24.710;2024-02-15T06:07:15;14.82;;;10.80;;
44000;SDS011;29660;42.892;24.710;2024-02-15T06:12:37;17.27;;;11.65;;
44000;SDS011;29660;42.892;24.710;2024-02-15T06:17:59;19.25;;;11.50;;
44000;SDS011;29660;42.892;24.710;2024-02-15T06:23:22;19.23;;;10.13;;
44000;SDS011;29660;42.892;24.710;2024-02-15T06:28:44;23.05;;;14.73;;
44000;SDS011;29660;42.892;24.710;2024-02-15T06:34:25;19.85;;;14.07;;
44000;SDS011;29660;42.892;24.710;2024-02-15T06:40:06;19.38;;;12.07;;
44000;SDS011;29660;42.892;24.710;2024-02-15T06:45:29;14.05;;;11.23;;
44000;SDS011;29660;42.892;24.710;2024-02-15T06:50:53;16.58;;;11.20;;
44000;SDS011;29660;42.892;24.710;2024-02-15T06:56:16;10.00;;;7.20;;
44000;SDS011;29660;42.892;24.710;2024-02-15T07:01:41;17.80;;;11.35;;
44000;SDS011;29660;42.892;24.710;2024-02-15T07:07:03;27.60;;;19.58;;
44000;SDS011;29660;42.892;24.710;2024-02-15T07:12:26;15.82;;;11.60;;
44000;SDS011;29660;42.892;24.710;2024-02-15T07:17:49;14.18;;;10.00;;
44000;SDS011;29660;42.892;24.710;2024-02-15T07:23:16;11.43;;;8.65;;
44000;SDS011;29660;42.892;24.710;2024-02-15T07:28:38;20.85;;;15.80;;
44000;SDS011;29660;42.892;24.710;2024-02-15T07:34:01;29.70;;;21.92;;
44000;SDS011;29660;42.892;24.710;2024-02-15T07:39:25;11.85;;;7.78;;
44000;SDS011;29660;42.892;24.710;2024-02-15T07:44:49;11.65;;;7.63;;
44000;SDS011;29660;42.892;24.710;2024-02-15T07:50:14;7.75;;;6.35;;
44000;SDS011;29660;42.892;24.710;2024-02-15T07:55:41;14.70;;;8.73;;
44000;SDS011;29660;42.892;24.710;2024-02-15T08:01:03;15.30;;;9.50;;
44000;SDS011;29660;42.892;24.710;2024-02-15T08:06:27;9.50;;;7.38;;
44000;SDS011;29660;42.892;24.710;2024-02-15T08:11:50;11.48;;;8.32;;
44000;SDS011;29660;42.892;24.710;2024-02-15T08:17:13;12.80;;;7.55;;
44000;SDS011;29660;42.892;24.710;2024-02-15T08:22:35;14.05;;;9.57;;
44000;SDS011;29660;42.892;24.710;2024-02-15T08:28:00;16.75;;;9.38;;
44000;SDS011;29660;42.892;24.710;2024-02-15T08:33:51;16.48;;;10.35;;
44000;SDS011;29660;42.892;24.710;2024-02-15T08:39:15;12.88;;;7.78;;
44000;SDS011;29660;42.892;24.710;2024-02-15T08:44:38;13.23;;;10.35;;
44000;SDS011;29660;42.892;24.710;2024-02-15T08:50:00;12.40;;;8.27;;
44000;SDS011;29660;42.892;24.710;2024-02-15T08:55:26;15.23;;;7.88;;
44000;SDS011;29660;42.892;24.710;2024-02-15T09:00:49;14.57;;;9.15;;
44000;SDS011;29660;42.892;24.710;2024-02-15T09:06:11;10.95;;;7.97;;
44000;SDS011;29660;42.892;24.710;2024-02-15T09:11:34;11.02;;;7.32;;
44000;SDS011;29660;42.892;24.710;2024-02-15T09:16:56;11.15;;;8.55;;
44000;SDS011;29660;42.892;24.710;2024-02-15T09:22:20;43.90;;;34.72;;
44000;SDS011;29660;42.892;24.710;2024-02-15T09:27:45;9.48;;;5.88;;
44000;SDS011;29660;42.892;24.710;2024-02-15T09:33:09;23.83;;;18.60;;
44000;SDS011;29660;42.892;24.710;2024-02-15T09:39:08;13.63;;;9.60;;
44000;SDS011;29660;42.892;24.710;2024-02-15T09:44:34;10.45;;;6.97;;
44000;SDS011;29660;42.892;24.710;2024-02-15T09:49:57;19.67;;;9.80;;
44000;SDS011;29660;42.892;24.710;2024-02-15T09:55:21;9.73;;;7.07;;
44000;SDS011;29660;42.892;24.710;2024-02-15T10:00:45;15.85;;;8.52;;
44000;SDS011;29660;42.892;24.710;2024-02-15T10:06:08;12.57;;;7.13;;
44000;SDS011;29660;42.892;24.710;2024-02-15T10:11:30;14.02;;;5.57;;
44000;SDS011;29660;42.892;24.710;2024-02-15T10:16:53;10.48;;;6.15;;
44000;SDS011;29660;42.892;24.710;2024-02-15T10:22:18;10.82;;;5.97;;
44000;SDS011;29660;42.892;24.710;2024-02-15T10:27:45;9.35;;;6.90;;
44000;SDS011;29660;42.892;24.710;2024-02-15T10:33:09;13.18;;;6.72;;
44000;SDS011;29660;42.892;24.710;2024-02-15T10:38:31;8.98;;;5.68;;
44000;SDS011;29660;42.892;24.710;2024-02-15T10:43:53;7.85;;;5.72;;
44000;SDS011;29660;42.892;24.710;2024-02-15T10:49:16;7.32;;;5.05;;
44000;SDS011;29660;42.892;24.710;2024-02-15T10:54:51;13.52;;;8.95;;
44000;SDS011;29660;42.892;24.710;2024-02-15T11:00:16;55.22;;;28.63;;
44000;SDS011;29660;42.892;24.710;2024-02-15T11:05:43;16.95;;;10.77;;
44000;SDS011;29660;42.892;24.710;2024-02-15T11:11:08;11.18;;;8.32;;
44000;SDS011;29660;42.892;24.710;2024-02-15T11:16:41;9.20;;;6.40;;
44000;SDS011;29660;42.892;24.710;2024-02-15T11:22:08;7.20;;;5.15;;
44000;SDS011;29660;42.892;24.710;2024-02-15T11:27:38;7.95;;;5.57;;
44000;SDS011;29660;42.892;24.710;2024-02-15T11:33:19;8.90;;;6.25;;
44000;SDS011;29660;42.892;24.710;2024-02-15T11:38:51;7.18;;;6.00;;
44000;SDS011;29660;42.892;24.710;2024-02-15T11:44:15;6.80;;;4.95;;
44000;SDS011;29660;42.892;24.710;2024-02-15T11:49:39;7.43;;;4.60;;
44000;SDS011;29660;42.892;24.710;2024-02-15T11:55:04;8.63;;;5.97;;
44000;SDS011;29660;42.892;24.710;2024-02-15T12:00:32;4.68;;;4.15;;
44000;SDS011;29660;42.892;24.710;2024-02-15T12:06:16;7.03;;;5.72;;
44000;SDS011;29660;42.892;24.710;2024-02-15T12:11:58;11.35;;;8.93;;
44000;SDS011;29660;42.892;24.710;2024-02-15T12:17:39;7.18;;;5.50;;
44000;SDS011;29660;42.892;24.710;2024-02-15T12:23:20;9.40;;;6.45;;
44000;SDS011;29660;42.892;24.710;2024-02-15T12:28:42;11.32;;;9.32;;
44000;SDS011;29660;42.892;24.710;2024-02-15T12:34:07;10.25;;;7.20;;
44000;SDS011;29660;42.892;24.710;2024-02-15T12:39:29;14.95;;;10.57;;
44000;SDS011;29660;42.892;24.710;2024-02-15T12:44:53;17.48;;;10.68;;
44000;SDS011;29660;42.892;24.710;2024-02-15T12:50:18;9.43;;;7.05;;
44000;SDS011;29660;42.892;24.710;2024-02-15T12:55:41;22.25;;;15.10;;
44000;SDS011;29660;42.892;24.710;2024-02-15T13:01:03;6.88;;;5.35;;
44000;SDS011;29660;42.892;24.710;2024-02-15T13:06:26;6.07;;;4.70;;
44000;SDS011;29660;42.892;24.710;2024-02-15T13:11:48;7.10;;;6.07;;
44000;SDS011;29660;42.892;24.710;2024-02-15T13:17:12;7.93;;;6.30;;
44000;SDS011;29660;42.892;24.710;2024-02-15T13:22:34;7.65;;;5.50;;
44000;SDS011;29660;42.892;24.710;2024-02-15T13:27:58;17.83;;;13.13;;
44000;SDS011;29660;42.892;24.710;2024-02-15T13:33:20;13.77;;;11.90;;
44000;SDS011;29660;42.892;24.710;2024-02-15T13:38:42;13.30;;;10.68;;
44000;SDS011;29660;42.892;24.710;2024-02-15T13:44:04;15.60;;;9.88;;
44000;SDS011;29660;42.892;24.710;2024-02-15T13:49:26;11.63;;;8.30;;
44000;SDS011;29660;42.892;24.710;2024-02-15T13:54:52;34.17;;;19.02;;
44000;SDS011;29660;42.892;24.710;2024-02-15T14:00:15;66.03;;;39.15;;
44000;SDS011;29660;42.892;24.710;2024-02-15T14:05:44;14.82;;;9.90;;
44000;SDS011;29660;42.892;24.710;2024-02-15T14:11:09;18.13;;;12.18;;
44000;SDS011;29660;42.892;24.710;2024-02-15T14:16:31;20.90;;;13.75;;
44000;SDS011;29660;42.892;24.710;2024-02-15T14:21:56;19.70;;;14.60;;
44000;SDS011;29660;42.892;24.710;2024-02-15T14:27:18;14.23;;;10.98;;
44000;SDS011;29660;42.892;24.710;2024-02-15T14:32:40;45.75;;;31.08;;
44000;SDS011;29660;42.892;24.710;2024-02-15T14:38:24;21.13;;;15.95;;
44000;SDS011;29660;42.892;24.710;2024-02-15T14:43:46;13.75;;;9.82;;
44000;SDS011;29660;42.892;24.710;2024-02-15T14:49:08;45.25;;;31.38;;
44000;SDS011;29660;42.892;24.710;2024-02-15T14:54:31;60.85;;;38.08;;
44000;SDS011;29660;42.892;24.710;2024-02-15T14:59:55;30.40;;;18.98;;
44000;SDS011;29660;42.892;24.710;2024-02-15T15:05:17;48.17;;;30.27;;
44000;SDS011;29660;42.892;24.710;2024-02-15T15:10:58;23.50;;;17.17;;
44000;SDS011;29660;42.892;24.710;2024-02-15T15:16:39;21.75;;;16.58;;
44000;SDS011;29660;42.892;24.710;2024-02-15T15:22:01;19.23;;;13.52;;
44000;SDS011;29660;42.892;24.710;2024-02-15T15:27:27;63.25;;;42.45;;
44000;SDS011;29660;42.892;24.710;2024-02-15T15:32:49;24.60;;;20.63;;
44000;SDS011;29660;42.892;24.710;2024-02-15T15:38:12;32.20;;;27.55;;
44000;SDS011;29660;42.892;24.710;2024-02-15T15:43:34;41.17;;;32.53;;
44000;SDS011;29660;42.892;24.710;2024-02-15T15:48:57;27.60;;;19.75;;
44000;SDS011;29660;42.892;24.710;2024-02-15T15:54:19;99.40;;;73.88;;
44000;SDS011;29660;42.892;24.710;2024-02-15T15:59:41;47.53;;;34.15;;
44000;SDS011;29660;42.892;24.710;2024-02-15T16:05:05;76.22;;;54.38;;
44000;SDS011;29660;42.892;24.710;2024-02-15T16:10:28;80.57;;;52.53;;
44000;SDS011;29660;42.892;24.710;2024-02-15T16:15:53;64.32;;;44.45;;
44000;SDS011;29660;42.892;24.710;2024-02-15T16:21:17;49.60;;;33.65;;
44000;SDS011;29660;42.892;24.710;2024-02-15T16:26:40;46.13;;;30.75;;
44000;SDS011;29660;42.892;24.710;2024-02-15T16:32:03;39.60;;;30.27;;
44000;SDS011;29660;42.892;24.710;2024-02-15T16:37:25;72.97;;;49.22;;
44000;SDS011;29660;42.892;24.710;2024-02-15T16:42:47;79.25;;;55.90;;
44000;SDS011;29660;42.892;24.710;2024-02-15T16:48:10;80.85;;;62.13;;
44000;SDS011;29660;42.892;24.710;2024-02-15T16:53:33;88.05;;;64.90;;
44000;SDS011;29660;42.892;24.710;2024-02-15T16:58:56;86.38;;;65.00;;
44000;SDS011;29660;42.892;24.710;2024-02-15T17:04:18;83.90;;;59.70;;
44000;SDS011;29660;42.892;24.710;2024-02-15T17:09:41;74.72;;;55.60;;
44000;SDS011;29660;42.892;24.710;2024-02-15T17:15:03;140.27;;;90.70;;
44000;SDS011;29660;42.892;24.710;2024-02-15T17:20:29;129.70;;;95.93;;
44000;SDS011;29660;42.892;24.710;2024-02-15T17:25:51;115.38;;;88.28;;
44000;SDS011;29660;42.892;24.710;2024-02-15T17:31:15;99.55;;;76.10;;
44000;SDS011;29660;42.892;24.710;2024-02-15T17:36:38;102.07;;;75.68;;
44000;SDS011;29660;42.892;24.710;2024-02-15T17:42:01;86.75;;;64.85;;
44000;SDS011;29660;42.892;24.710;2024-02-15T17:47:23;76.72;;;55.97;;
44000;SDS011;29660;42.892;24.710;2024-02-15T17:52:45;74.10;;;55.40;;
44000;SDS011;29660;42.892;24.710;2024-02-15T17:58:09;73.43;;;56.50;;
44000;SDS011;29660;42.892;24.710;2024-02-15T18:03:32;94.00;;;64.57;;
44000;SDS011;29660;42.892;24.710;2024-02-15T18:08:55;148.90;;;92.47;;
44000;SDS011;29660;42.892;24.710;2024-02-15T18:14:17;187.18;;;132.98;;
44000;SDS011;29660;42.892;24.710;2024-02-15T18:19:39;151.00;;;106.05;;
44000;SDS011;29660;42.892;24.710;2024-02-15T18:25:01;155.65;;;116.53;;
44000;SDS011;29660;42.892;24.710;2024-02-15T18:30:24;200.02;;;140.15;;
44000;SDS011;29660;42.892;24.710;2024-02-15T18:35:55;151.27;;;112.28;;
44000;SDS011;29660;42.892;24.710;2024-02-15T18:41:19;131.95;;;96.75;;
44000;SDS011;29660;42.892;24.710;2024-02-15T18:46:41;169.38;;;134.80;;
44000;SDS011;29660;42.892;24.710;2024-02-15T18:52:05;132.25;;;92.22;;
44000;SDS011;29660;42.892;24.710;2024-02-15T18:57:27;134.25;;;98.28;;
44000;SDS011;29660;42.892;24.710;2024-02-15T19:02:52;96.53;;;70.18;;
44000;SDS011;29660;42.892;24.710;2024-02-15T19:08:15;91.32;;;60.65;;
44000;SDS011;29660;42.892;24.710;2024-02-15T19:13:39;88.15;;;56.65;;
44000;SDS011;29660;42.892;24.710;2024-02-15T19:19:02;91.78;;;61.70;;
44000;SDS011;29660;42.892;24.710;2024-02-15T19:24:25;78.82;;;53.50;;
44000;SDS011;29660;42.892;24.710;2024-02-15T19:29:49;59.55;;;42.08;;
44000;SDS011;29660;42.892;24.710;2024-02-15T19:35:11;106.18;;;73.70;;
44000;SDS011;29660;42.892;24.710;2024-02-15T19:40:34;97.18;;;67.55;;
44000;SDS011;29660;42.892;24.710;2024-02-15T19:45:57;84.57;;;58.00;;
44000;SDS011;29660;42.892;24.710;2024-02-15T19:51:19;58.40;;;42.30;;
44000;SDS011;29660;42.892;24.710;2024-02-15T19:56:42;50.45;;;35.33;;
44000;SDS011;29660;42.892;24.710;2024-02-15T20:02:05;69.13;;;50.20;;
44000;SDS011;29660;42.892;24.710;2024-02-15T20:07:27;71.22;;;50.78;;
44000;SDS011;29660;42.892;24.710;2024-02-15T20:12:50;70.72;;;50.28;;
44000;SDS011;29660;42.892;24.710;2024-02-15T20:18:12;99.68;;;73.10;;
44000;SDS011;29660;42.892;24.710;2024-02-15T20:23:37;77.43;;;52.78;;
44000;SDS011;29660;42.892;24.710;2024-02-15T20:29:01;75.32;;;52.78;;
44000;SDS011;29660;42.892;24.710;2024-02-15T20:34:23;70.47;;;51.55;;
44000;SDS011;29660;42.892;24.710;2024-02-15T20:39:45;68.50;;;50.42;;
44000;SDS011;29660;42.892;24.710;2024-02-15T20:45:08;75.43;;;54.55;;
44000;SDS011;29660;42.892;24.710;2024-02-15T20:50:30;64.05;;;47.55;;
44000;SDS011;29660;42.892;24.710;2024-02-15T20:55:54;80.93;;;56.00;;
44000;SDS011;29660;42.892;24.710;2024-02-15T21:01:17;99.28;;;71.63;;
44000;SDS011;29660;42.892;24.710;2024-02-15T21:06:39;96.55;;;70.70;;
44000;SDS011;29660;42.892;24.710;2024-02-15T21:12:03;80.40;;;61.65;;
44000;SDS011;29660;42.892;24.710;2024-02-15T21:17:26;82.00;;;61.65;;
44000;SDS011;29660;42.892;24.710;2024-02-15T21:22:48;90.45;;;62.92;;
44000;SDS011;29660;42.892;24.710;2024-02-15T21:28:14;102.38;;;71.40;;
44000;SDS011;29660;42.892;24.710;2024-02-15T21:33:37;75.47;;;53.80;;
44000;SDS011;29660;42.892;24.710;2024-02-15T21:38:59;189.30;;;105.07;;
44000;SDS011;29660;42.892;24.710;2024-02-15T21:44:21;97.22;;;61.90;;
44000;SDS011;29660;42.892;24.710;2024-02-15T21:49:44;67.85;;;47.85;;
44000;SDS011;29660;42.892;24.710;2024-02-15T21:55:06;83.97;;;59.28;;
44000;SDS011;29660;42.892;24.710;2024-02-15T22:00:29;66.15;;;47.65;;
44000;SDS011;29660;42.892;24.710;2024-02-15T22:05:51;105.97;;;75.30;;
44000;SDS011;29660;42.892;24.710;2024-02-15T22:11:14;92.60;;;68.53;;
44000;SDS011;29660;42.892;24.710;2024-02-15T22:16:36;89.00;;;64.30;;
44000;SDS011;29660;42.892;24.710;2024-02-15T22:21:59;77.07;;;56.30;;
44000;SDS011;29660;42.892;24.710;2024-02-15T22:27:22;66.88;;;48.05;;
44000;SDS011;29660;42.892;24.710;2024-02-15T22:32:45;45.22;;;34.20;;
44000;SDS011;29660;42.892;24.710;2024-02-15T22:38:07;38.97;;;27.92;;
44000;SDS011;29660;42.892;24.710;2024-02-15T22:43:29;33.92;;;24.00;;
44000;SDS011;29660;42.892;24.710;2024-02-15T22:48:55;25.30;;;20.23;;
44000;SDS011;29660;42.892;24.710;2024-02-15T22:54:20;28.20;;;20.33;;
44000;SDS011;29660;42.892;24.710;2024-02-15T22:59:42;37.92;;;27.15;;
44000;SDS011;29660;42.892;24.710;2024-02-15T23:05:05;51.42;;;36.33;;
44000;SDS011;29660;42.892;24.710;2024-02-15T23:10:30;46.25;;;33.85;;
44000;SDS011;29660;42.892;24.710;2024-02-15T23:15:53;35.25;;;26.00;;
44000;SDS011;29660;42.892;24.710;2024-02-15T23:21:15;29.42;;;22.45;;
44000;SDS011;29660;42.892;24.710;2024-02-15T23:26:38;32.65;;;23.58;;
44000;SDS011;29660;42.892;24.710;2024-02-15T23:32:01;29.73;;;22.25;;
44000;SDS011;29660;42.892;24.710;2024-02-15T23:37:23;24.20;;;18.55;;
44000;SDS011;29660;42.892;24.710;2024-02-15T23:43:04;32.88;;;24.40;;
44000;SDS011;29660;42.892;24.710;2024-02-15T23:48:26;43.72;;;33.92;;
44000;SDS011;29660;42.892;24.710;2024-02-15T23:53:48;47.97;;;34.45;;
44000;SDS011;29660;42.892;24.710;2024-02-15T23:59:10;48.75;;;33.45;;
